createdAt,value
2017-07-12T00:01:27.675Z,18.40
2017-07-12T00:03:57.092Z,18.30
2017-07-12T00:06:26.533Z,18.30
2017-07-12T00:08:55.939Z,18.30
2017-07-12T00:11:25.373Z,18.30
2017-07-12T00:13:54.780Z,18.30
2017-07-12T00:16:24.247Z,18.40
2017-07-12T00:18:53.654Z,18.30
2017-07-12T00:21:23.329Z,18.30
2017-07-12T00:23:53.543Z,18.30
2017-07-12T00:26:23.049Z,18.30
2017-07-12T00:28:52.450Z,18.30
2017-07-12T00:31:21.862Z,18.20
2017-07-12T00:33:52.021Z,18.20
2017-07-12T00:36:21.458Z,18.20
2017-07-12T00:38:50.873Z,18.20
2017-07-12T00:41:20.303Z,18.20
2017-07-12T00:43:50.279Z,18.00
2017-07-12T00:46:19.807Z,18.00
2017-07-12T00:48:49.235Z,17.90
2017-07-12T00:51:19.403Z,17.90
2017-07-12T00:53:48.837Z,17.90
2017-07-12T00:56:18.268Z,18.00
2017-07-12T00:58:47.686Z,18.00
2017-07-12T01:01:17.125Z,17.90
2017-07-12T01:03:46.550Z,17.90
2017-07-12T01:06:15.948Z,17.80
2017-07-12T01:08:45.370Z,17.80
2017-07-12T01:11:15.543Z,17.70
2017-07-12T01:13:44.965Z,17.70
2017-07-12T01:16:14.364Z,17.70
2017-07-12T01:18:43.796Z,17.60
2017-07-12T01:21:13.981Z,17.50
2017-07-12T01:23:43.413Z,17.50
2017-07-12T01:26:12.817Z,17.60
2017-07-12T01:28:42.631Z,17.50
2017-07-12T01:31:12.057Z,17.50
2017-07-12T01:33:41.732Z,17.50
2017-07-12T01:36:11.168Z,17.50
2017-07-12T01:38:40.856Z,17.40
2017-07-12T01:41:10.718Z,17.40
2017-07-12T01:43:39.667Z,17.30
2017-07-12T01:46:09.119Z,17.30
2017-07-12T01:48:38.519Z,17.30
2017-07-12T01:51:07.751Z,17.30
2017-07-12T01:53:37.171Z,17.30
2017-07-12T01:56:07.360Z,17.20
2017-07-12T01:58:36.759Z,17.20
2017-07-12T02:01:06.584Z,17.10
2017-07-12T02:03:35.988Z,17.10
2017-07-12T02:06:05.982Z,17.10
2017-07-12T02:08:35.383Z,17.10
2017-07-12T02:11:05.084Z,17.10
2017-07-12T02:13:35.895Z,17.00
2017-07-12T02:16:05.009Z,17.10
2017-07-12T02:18:34.242Z,17.10
2017-07-12T02:21:03.919Z,17.10
2017-07-12T02:23:33.616Z,17.00
2017-07-12T02:26:04.116Z,17.00
2017-07-12T02:28:34.317Z,17.00
2017-07-12T02:31:03.710Z,17.00
2017-07-12T02:33:33.415Z,17.00
2017-07-12T02:36:02.815Z,16.90
2017-07-12T02:38:32.256Z,16.90
2017-07-12T02:41:01.933Z,16.90
2017-07-12T02:43:31.643Z,16.90
2017-07-12T02:46:01.321Z,16.80
2017-07-12T02:48:31.570Z,16.90
2017-07-12T02:51:01.257Z,16.90
2017-07-12T02:53:30.950Z,16.90
2017-07-12T02:56:01.417Z,16.80
2017-07-12T02:58:31.131Z,16.80
2017-07-12T03:01:00.812Z,16.70
2017-07-12T03:03:30.297Z,16.70
2017-07-12T03:05:59.999Z,16.70
2017-07-12T03:08:29.705Z,16.70
2017-07-12T03:10:59.404Z,16.60
2017-07-12T03:13:29.094Z,16.60
2017-07-12T03:15:58.801Z,16.70
2017-07-12T03:18:28.483Z,16.60
2017-07-12T03:20:58.931Z,16.70
2017-07-12T03:23:28.609Z,16.70
2017-07-12T03:25:58.307Z,16.70
2017-07-12T03:28:27.988Z,16.80
2017-07-12T03:30:57.678Z,16.90
2017-07-12T03:33:27.371Z,16.80
2017-07-12T03:35:57.081Z,16.90
2017-07-12T03:38:26.749Z,16.90
2017-07-12T03:40:56.465Z,16.90
2017-07-12T03:43:26.190Z,16.90
2017-07-12T03:45:55.879Z,17.00
2017-07-12T03:48:25.555Z,17.00
2017-07-12T03:50:55.251Z,17.00
2017-07-12T03:53:25.704Z,16.80
2017-07-12T03:55:55.414Z,16.80
2017-07-12T03:58:25.091Z,16.90
2017-07-12T04:00:55.551Z,16.90
2017-07-12T04:03:25.284Z,16.90
2017-07-12T04:05:54.960Z,16.90
2017-07-12T04:08:24.646Z,17.00
2017-07-12T04:10:55.089Z,17.00
2017-07-12T04:13:24.791Z,17.00
2017-07-12T04:15:55.234Z,17.00
2017-07-12T04:18:24.944Z,17.00
2017-07-12T04:20:54.615Z,17.00
2017-07-12T04:23:24.054Z,17.10
2017-07-12T04:25:53.736Z,17.10
2017-07-12T04:28:23.433Z,17.20
2017-07-12T04:30:52.848Z,17.30
2017-07-12T04:33:22.294Z,17.40
2017-07-12T04:35:51.725Z,17.60
2017-07-12T04:38:21.932Z,17.90
2017-07-12T04:40:51.327Z,17.90
2017-07-12T04:43:21.524Z,18.10
2017-07-12T04:45:50.960Z,18.10
2017-07-12T04:48:21.136Z,18.30
2017-07-12T04:50:50.545Z,18.20
2017-07-12T04:53:19.967Z,18.30
2017-07-12T04:55:49.381Z,18.50
2017-07-12T04:58:19.547Z,18.80
2017-07-12T05:00:48.971Z,18.80
2017-07-12T05:03:18.385Z,18.80
2017-07-12T05:05:47.816Z,18.90
2017-07-12T05:08:17.983Z,19.20
2017-07-12T05:10:47.410Z,19.10
2017-07-12T05:13:16.819Z,19.20
2017-07-12T05:15:46.252Z,19.40
2017-07-12T05:18:16.487Z,19.30
2017-07-12T05:20:45.897Z,19.30
2017-07-12T05:23:15.326Z,19.40
2017-07-12T05:25:44.727Z,19.20
2017-07-12T05:28:14.153Z,19.20
2017-07-12T05:30:43.591Z,19.20
2017-07-12T05:33:13.774Z,19.20
2017-07-12T05:35:43.184Z,19.20
2017-07-12T05:38:12.630Z,19.10
2017-07-12T05:40:42.818Z,19.10
2017-07-12T05:43:12.234Z,19.10
2017-07-12T05:45:41.639Z,19.20
2017-07-12T05:48:11.062Z,19.30
2017-07-12T05:50:40.471Z,20.00
2017-07-12T05:53:09.899Z,20.80
2017-07-12T05:55:39.300Z,21.70
2017-07-12T05:58:08.362Z,22.60
2017-07-12T06:00:38.523Z,23.40
2017-07-12T06:03:07.972Z,23.30
2017-07-12T06:05:37.273Z,23.30
2017-07-12T06:08:06.681Z,23.00
2017-07-12T06:10:36.083Z,22.60
2017-07-12T06:13:05.557Z,22.30
2017-07-12T06:15:34.762Z,21.70
2017-07-12T06:18:03.976Z,21.30
2017-07-12T06:20:33.373Z,20.80
2017-07-12T06:23:02.782Z,20.50
2017-07-12T06:25:32.232Z,20.30
2017-07-12T06:28:01.646Z,20.30
2017-07-12T06:30:31.086Z,20.30
2017-07-12T06:33:00.307Z,20.30
2017-07-12T06:35:29.536Z,20.10
2017-07-12T06:37:58.939Z,20.00
2017-07-12T06:40:28.359Z,19.90
2017-07-12T06:42:57.757Z,20.10
2017-07-12T06:45:27.990Z,20.30
2017-07-12T06:47:58.160Z,20.40
2017-07-12T06:50:27.585Z,20.40
2017-07-12T06:52:57.000Z,20.50
2017-07-12T06:55:26.414Z,20.50
2017-07-12T06:57:56.582Z,21.50
2017-07-12T07:00:26.001Z,21.40
2017-07-12T07:02:55.206Z,21.90
2017-07-12T07:05:24.631Z,22.30
2017-07-12T07:07:54.810Z,22.90
2017-07-12T07:10:24.240Z,22.80
2017-07-12T07:12:53.631Z,23.70
2017-07-12T07:15:23.073Z,24.50
2017-07-12T07:17:52.470Z,24.20
2017-07-12T07:20:22.698Z,26.00
2017-07-12T07:22:52.115Z,26.00
2017-07-12T07:25:21.563Z,26.30
2017-07-12T07:27:51.000Z,25.10
2017-07-12T07:30:20.417Z,25.30
2017-07-12T07:32:49.825Z,25.30
2017-07-12T07:35:19.244Z,24.80
2017-07-12T07:37:48.670Z,24.60
2017-07-12T07:40:18.101Z,24.20
2017-07-12T07:42:48.283Z,25.50
2017-07-12T07:45:17.699Z,25.50
2017-07-12T07:47:47.131Z,26.20
2017-07-12T07:50:17.291Z,25.80
2017-07-12T07:52:46.727Z,25.80
2017-07-12T07:55:16.132Z,26.00
2017-07-12T07:57:45.562Z,25.60
2017-07-12T08:00:15.705Z,26.30
2017-07-12T08:02:45.128Z,26.30
2017-07-12T08:05:14.551Z,25.00
2017-07-12T08:07:43.947Z,24.50
2017-07-12T08:10:13.381Z,24.80
2017-07-12T08:12:42.781Z,25.20
2017-07-12T08:15:12.188Z,26.10
2017-07-12T08:17:41.598Z,26.60
2017-07-12T08:20:10.998Z,26.80
2017-07-12T08:22:41.188Z,25.80
2017-07-12T08:25:10.614Z,25.80
2017-07-12T08:27:40.018Z,25.10
2017-07-12T08:30:09.428Z,24.90
2017-07-12T08:32:38.834Z,25.10
2017-07-12T08:35:09.013Z,25.90
2017-07-12T08:37:38.401Z,25.90
2017-07-12T08:40:07.812Z,25.60
2017-07-12T08:42:37.214Z,25.40
2017-07-12T08:45:06.649Z,25.60
2017-07-12T08:47:36.038Z,26.60
2017-07-12T08:50:05.426Z,26.40
2017-07-12T08:52:34.841Z,25.90
2017-07-12T08:55:04.237Z,26.70
2017-07-12T08:57:33.677Z,27.50
2017-07-12T09:00:03.072Z,28.20
2017-07-12T09:02:32.476Z,27.80
2017-07-12T09:05:01.875Z,26.80
2017-07-12T09:07:31.261Z,26.10
2017-07-12T09:10:00.667Z,25.60
2017-07-12T09:12:30.079Z,25.20
2017-07-12T09:14:59.469Z,26.10
2017-07-12T09:17:28.893Z,27.00
2017-07-12T09:19:58.274Z,26.70
2017-07-12T09:22:27.673Z,26.40
2017-07-12T09:34:54.721Z,25.20
2017-07-12T09:37:24.125Z,25.40
2017-07-12T09:39:54.303Z,24.90
2017-07-12T09:42:23.704Z,24.80
2017-07-12T09:44:53.111Z,24.60
2017-07-12T09:47:22.517Z,24.20
2017-07-12T09:49:51.933Z,23.70
2017-07-12T09:52:21.323Z,23.50
2017-07-12T09:54:50.739Z,23.00
2017-07-12T09:57:20.246Z,22.70
2017-07-12T09:59:49.667Z,22.80
2017-07-12T10:02:19.825Z,22.70
2017-07-12T10:04:49.265Z,22.70
2017-07-12T10:07:18.657Z,22.50
2017-07-12T10:09:48.097Z,22.30
2017-07-12T10:12:18.260Z,22.40
2017-07-12T10:14:47.678Z,22.40
2017-07-12T10:17:17.091Z,22.30
2017-07-12T10:19:46.486Z,22.30
2017-07-12T10:22:15.911Z,22.40
2017-07-12T10:24:45.306Z,22.30
2017-07-12T10:27:14.737Z,22.30
2017-07-12T10:29:44.126Z,22.40
2017-07-12T10:32:13.546Z,22.50
2017-07-12T10:34:43.371Z,22.60
2017-07-12T10:37:12.774Z,22.60
2017-07-12T10:39:42.955Z,22.20
2017-07-12T10:42:12.380Z,22.20
2017-07-12T10:44:41.766Z,21.90
2017-07-12T10:47:11.176Z,21.80
2017-07-12T10:49:46.005Z,21.80
2017-07-12T10:52:10.288Z,21.60
2017-07-12T10:54:39.687Z,21.20
2017-07-12T10:57:09.102Z,21.00
2017-07-12T10:59:39.284Z,20.10
2017-07-12T11:02:08.682Z,20.10
2017-07-12T11:04:38.088Z,20.10
2017-07-12T11:07:07.485Z,20.10
2017-07-12T11:09:36.893Z,20.20
2017-07-12T11:12:06.310Z,20.30
2017-07-12T11:14:35.739Z,20.50
2017-07-12T11:17:05.901Z,20.60
2017-07-12T11:19:35.315Z,20.60
2017-07-12T11:22:04.731Z,20.50
2017-07-12T11:24:34.152Z,20.40
2017-07-12T11:27:04.320Z,20.50
2017-07-12T11:29:33.545Z,20.50
2017-07-12T11:32:02.944Z,20.50
2017-07-12T11:34:32.356Z,20.50
2017-07-12T11:37:01.745Z,20.50
2017-07-12T11:39:30.823Z,20.40
2017-07-12T11:42:00.216Z,20.40
2017-07-12T11:44:34.369Z,20.30
2017-07-12T11:47:03.782Z,20.30
2017-07-12T11:49:33.204Z,20.10
2017-07-12T11:52:02.445Z,19.80
2017-07-12T11:54:31.849Z,19.50
2017-07-12T11:57:01.324Z,19.10
2017-07-12T11:59:31.477Z,18.80
2017-07-12T12:02:00.926Z,18.70
2017-07-12T12:04:31.094Z,18.70
2017-07-12T12:07:00.522Z,18.70
2017-07-12T12:09:29.930Z,18.80
2017-07-12T12:11:59.378Z,18.90
2017-07-12T12:14:28.802Z,18.90
2017-07-12T12:16:58.221Z,19.00
2017-07-12T12:19:27.622Z,19.10
2017-07-12T12:21:57.050Z,19.10
2017-07-12T12:24:26.470Z,19.30
2017-07-12T12:26:55.885Z,19.40
2017-07-12T12:29:26.057Z,19.40
2017-07-12T12:31:55.490Z,19.40
2017-07-12T12:34:24.899Z,19.30
2017-07-12T12:36:54.336Z,19.20
2017-07-12T12:39:23.761Z,19.10
2017-07-12T12:41:53.211Z,19.10
2017-07-12T12:44:22.629Z,19.10
2017-07-12T12:46:52.793Z,19.10
2017-07-12T12:49:22.219Z,19.10
2017-07-12T12:51:51.979Z,19.00
2017-07-12T12:54:21.454Z,18.80
2017-07-12T12:56:50.744Z,18.60
2017-07-12T12:59:20.024Z,18.60
2017-07-12T13:01:49.435Z,18.50
2017-07-12T13:04:24.434Z,18.40
2017-07-12T13:06:53.847Z,18.30
2017-07-12T13:09:23.274Z,18.20
2017-07-12T13:11:52.678Z,18.30
2017-07-12T13:14:22.141Z,18.20
2017-07-12T13:16:51.794Z,18.30
2017-07-12T13:19:21.209Z,18.30
2017-07-12T13:21:50.418Z,18.30
2017-07-12T13:24:19.866Z,18.40
2017-07-12T13:26:49.268Z,18.50
2017-07-12T13:29:18.856Z,18.50
2017-07-12T13:31:48.276Z,18.60
2017-07-12T13:34:17.683Z,18.60
2017-07-12T13:36:47.102Z,18.50
2017-07-12T13:39:17.302Z,18.30
2017-07-12T13:41:46.737Z,18.30
2017-07-12T13:44:16.903Z,18.30
2017-07-12T13:46:46.336Z,18.30
2017-07-12T13:49:15.756Z,18.50
2017-07-12T13:51:45.962Z,18.60
2017-07-12T13:54:15.467Z,18.60
2017-07-12T13:56:44.875Z,18.70
2017-07-12T13:59:14.296Z,18.80
2017-07-12T14:01:44.488Z,18.90
2017-07-12T14:04:13.911Z,18.90
2017-07-12T14:06:44.087Z,18.90
2017-07-12T14:09:13.490Z,18.80
2017-07-12T14:11:42.910Z,18.80
2017-07-12T14:14:12.395Z,19.00
2017-07-12T14:16:41.815Z,19.00
2017-07-12T14:19:11.211Z,19.10
2017-07-12T14:21:41.016Z,19.10
2017-07-12T14:24:10.432Z,19.00
2017-07-12T14:26:39.884Z,19.20
2017-07-12T14:29:10.063Z,19.20
2017-07-12T14:31:39.474Z,19.10
2017-07-12T14:34:08.912Z,19.10
2017-07-12T14:36:39.082Z,18.80
2017-07-12T14:39:08.526Z,18.80
2017-07-12T14:41:38.700Z,18.60
2017-07-12T14:44:08.114Z,18.60
2017-07-12T14:46:37.532Z,18.60
2017-07-12T14:49:06.956Z,18.50
2017-07-12T14:51:37.167Z,18.40
2017-07-12T14:54:07.340Z,18.40
2017-07-12T14:56:36.789Z,18.40
2017-07-12T14:59:07.198Z,18.30
2017-07-12T15:01:36.594Z,18.30
2017-07-12T15:04:06.020Z,18.20
2017-07-12T15:06:35.424Z,18.10
2017-07-12T15:09:04.164Z,18.20
2017-07-12T15:11:33.560Z,18.10
2017-07-12T15:14:02.971Z,18.10
2017-07-12T15:16:32.382Z,18.00
2017-07-12T15:19:01.786Z,18.00
2017-07-12T15:21:31.188Z,18.00
2017-07-12T15:24:00.584Z,18.00
2017-07-12T15:26:30.035Z,18.00
2017-07-12T15:28:59.450Z,18.10
2017-07-12T15:31:28.867Z,18.00
2017-07-12T15:33:59.026Z,18.00
2017-07-12T15:36:28.501Z,18.10
2017-07-12T15:38:57.935Z,18.20
2017-07-12T15:41:27.488Z,18.10
2017-07-12T15:43:56.951Z,18.10
2017-07-12T15:46:26.577Z,18.00
2017-07-12T15:48:56.007Z,18.10
2017-07-12T15:51:25.425Z,18.10
2017-07-12T15:53:55.615Z,18.00
2017-07-12T15:56:25.034Z,17.90
2017-07-12T15:58:55.243Z,17.90
2017-07-12T16:01:24.928Z,17.90
2017-07-12T16:03:54.351Z,17.80
2017-07-12T16:06:23.740Z,17.70
2017-07-12T16:08:53.178Z,17.70
2017-07-12T16:11:23.346Z,17.60
2017-07-12T16:13:53.069Z,17.60
2017-07-12T16:16:22.498Z,17.60
2017-07-12T16:18:52.875Z,17.60
2017-07-12T16:21:23.127Z,17.50
2017-07-12T16:23:52.588Z,17.50
2017-07-12T16:26:22.775Z,17.50
2017-07-12T16:28:52.493Z,17.50
2017-07-12T16:31:21.885Z,17.50
2017-07-12T16:33:51.625Z,17.50
2017-07-12T16:36:21.340Z,17.50
2017-07-12T16:38:51.531Z,17.50
2017-07-12T16:41:21.243Z,17.50
2017-07-12T16:43:50.659Z,17.50
2017-07-12T16:46:20.848Z,17.50
2017-07-12T16:48:50.528Z,17.50
2017-07-12T16:51:19.950Z,17.50
2017-07-12T16:53:49.361Z,17.50
2017-07-12T16:56:18.771Z,17.50
2017-07-12T16:58:48.169Z,17.60
2017-07-12T17:01:17.867Z,17.70
2017-07-12T17:03:48.298Z,17.70
2017-07-12T17:06:17.717Z,17.70
2017-07-12T17:08:47.109Z,17.60
2017-07-12T17:11:16.535Z,17.70
2017-07-12T17:13:45.946Z,17.60
2017-07-12T17:16:15.669Z,17.60
2017-07-12T17:18:45.048Z,17.70
2017-07-12T17:21:14.792Z,17.60
2017-07-12T17:23:44.960Z,17.60
2017-07-12T17:26:14.370Z,17.50
2017-07-12T17:28:44.063Z,17.60
2017-07-12T17:31:14.517Z,17.60
2017-07-12T17:33:43.915Z,17.60
2017-07-12T17:36:13.327Z,17.70
2017-07-12T17:38:42.727Z,17.70
2017-07-12T17:41:12.129Z,17.60
2017-07-12T17:43:41.554Z,17.60
2017-07-12T17:46:10.960Z,17.60
2017-07-12T17:48:40.638Z,17.50
2017-07-12T17:51:10.304Z,17.40
2017-07-12T17:53:39.996Z,17.30
2017-07-12T17:56:09.682Z,17.30
2017-07-12T17:58:39.358Z,17.30
2017-07-12T18:01:09.019Z,17.30
2017-07-12T18:03:38.701Z,17.30
2017-07-12T18:06:08.118Z,17.30
2017-07-12T18:08:37.797Z,17.20
2017-07-12T18:11:07.465Z,17.30
2017-07-12T18:13:37.176Z,17.20
2017-07-12T18:16:06.886Z,17.20
2017-07-12T18:18:36.585Z,17.10
2017-07-12T18:21:06.267Z,17.10
2017-07-12T18:23:35.950Z,17.10
2017-07-12T18:26:06.373Z,17.00
2017-07-12T18:28:36.860Z,16.90
2017-07-12T18:31:06.561Z,16.90
2017-07-12T18:33:36.266Z,16.90
2017-07-12T18:36:05.947Z,16.90
2017-07-12T18:38:36.406Z,16.80
2017-07-12T18:41:06.087Z,16.80
2017-07-12T18:43:35.759Z,16.80
2017-07-12T18:46:05.563Z,16.80
2017-07-12T18:48:35.293Z,16.80
2017-07-12T18:51:05.040Z,16.80
2017-07-12T18:53:34.711Z,16.80
2017-07-12T18:56:04.383Z,16.90
2017-07-12T18:58:33.860Z,16.90
2017-07-12T19:01:03.551Z,16.90
2017-07-12T19:03:33.993Z,16.90
2017-07-12T19:06:03.703Z,16.80
2017-07-12T19:08:33.378Z,16.80
2017-07-12T19:11:03.851Z,16.90
2017-07-12T19:13:33.523Z,16.90
2017-07-12T19:16:03.979Z,16.80
2017-07-12T19:18:33.653Z,16.80
2017-07-12T19:21:03.350Z,16.80
2017-07-12T19:23:33.025Z,16.80
2017-07-12T19:26:02.710Z,16.90
2017-07-12T19:28:33.192Z,16.80
2017-07-12T19:31:02.944Z,16.70
2017-07-12T19:33:33.411Z,16.60
2017-07-12T19:36:03.070Z,16.60
2017-07-12T19:38:33.028Z,16.50
2017-07-12T19:41:02.709Z,16.50
2017-07-12T19:43:33.148Z,16.40
2017-07-12T19:46:02.817Z,16.30
2017-07-12T19:48:32.488Z,16.30
2017-07-12T19:51:02.162Z,16.30
2017-07-12T19:53:32.597Z,16.10
2017-07-12T19:56:02.271Z,16.10
2017-07-12T19:58:31.947Z,16.10
2017-07-12T20:01:01.623Z,16.10
2017-07-12T20:03:32.070Z,16.10
2017-07-12T20:06:01.740Z,16.10
2017-07-12T20:08:31.431Z,16.00
2017-07-12T20:11:01.104Z,16.00
2017-07-12T20:13:30.803Z,16.00
2017-07-12T20:16:00.458Z,16.00
2017-07-12T20:18:30.194Z,16.00
2017-07-12T20:21:00.113Z,16.00
2017-07-12T20:23:30.579Z,15.90
2017-07-12T20:26:00.249Z,15.90
2017-07-12T20:28:30.712Z,15.90
2017-07-12T20:31:00.362Z,15.90
2017-07-12T20:33:30.052Z,15.90
2017-07-12T20:35:59.844Z,15.90
2017-07-12T20:38:29.522Z,15.90
2017-07-12T20:40:59.989Z,15.80
2017-07-12T20:43:29.646Z,15.80
2017-07-12T20:45:59.327Z,15.80
2017-07-12T20:48:29.005Z,15.80
2017-07-12T20:50:58.695Z,15.80
2017-07-12T20:53:28.359Z,15.80
2017-07-12T20:55:58.035Z,15.80
2017-07-12T20:58:27.709Z,15.80
2017-07-12T21:00:57.387Z,15.70
2017-07-12T21:03:27.071Z,15.70
2017-07-12T21:05:56.745Z,15.70
2017-07-12T21:08:27.174Z,15.80
2017-07-12T21:10:57.632Z,15.80
2017-07-12T21:13:27.313Z,15.70
2017-07-12T21:15:57.760Z,15.80
2017-07-12T21:18:27.424Z,15.70
2017-07-12T21:20:57.114Z,15.70
2017-07-12T21:23:26.769Z,15.60
2017-07-12T21:25:56.472Z,15.50
2017-07-12T21:28:26.146Z,15.40
2017-07-12T21:30:55.882Z,15.30
2017-07-12T21:33:25.773Z,15.20
2017-07-12T21:35:55.444Z,15.10
2017-07-12T21:38:25.128Z,14.90
2017-07-12T21:40:54.782Z,14.80
2017-07-12T21:43:25.247Z,14.60
2017-07-12T21:45:54.915Z,14.60
2017-07-12T21:48:24.598Z,14.30
2017-07-12T21:50:54.274Z,14.00
2017-07-12T21:53:40.822Z,13.90
2017-07-12T21:56:33.138Z,13.70
2017-07-12T21:59:26.233Z,13.60
2017-07-12T22:02:19.364Z,13.50
2017-07-12T22:05:12.457Z,13.50
2017-07-12T22:08:04.751Z,13.50
2017-07-12T22:10:57.065Z,13.50
2017-07-12T22:13:50.263Z,13.50
2017-07-12T22:16:42.481Z,13.50
2017-07-12T22:19:35.194Z,13.60
2017-07-12T22:22:27.466Z,13.60
2017-07-12T22:25:20.592Z,13.70
2017-07-12T22:28:12.848Z,13.70
2017-07-12T22:31:05.270Z,13.70
2017-07-12T22:33:57.688Z,13.80
2017-07-12T22:36:50.924Z,13.90
2017-07-12T22:39:32.038Z,13.80
2017-07-12T22:42:07.104Z,13.90
2017-07-12T22:44:36.569Z,13.90
2017-07-12T22:47:06.273Z,14.00
2017-07-12T22:49:36.690Z,14.10
2017-07-12T22:52:07.150Z,14.10
2017-07-12T22:54:36.822Z,14.10
2017-07-12T22:57:07.273Z,14.20
2017-07-12T22:59:36.943Z,14.20
2017-07-12T23:02:06.421Z,14.30
2017-07-12T23:04:36.083Z,14.30
2017-07-12T23:07:05.765Z,14.30
2017-07-12T23:09:35.432Z,14.30
2017-07-12T23:12:05.132Z,14.40
2017-07-12T23:14:34.781Z,14.30
2017-07-12T23:17:04.467Z,14.40
2017-07-12T23:19:34.121Z,14.40
2017-07-12T23:22:04.580Z,14.40
2017-07-12T23:24:34.056Z,14.40
2017-07-12T23:27:03.804Z,14.50
2017-07-12T23:29:33.481Z,14.50
2017-07-12T23:32:04.004Z,14.50
2017-07-12T23:34:33.653Z,14.40
2017-07-12T23:37:03.340Z,14.50
2017-07-12T23:39:33.781Z,14.40
2017-07-12T23:42:03.433Z,14.40
2017-07-12T23:44:33.127Z,14.40
2017-07-12T23:47:02.785Z,14.40
2017-07-12T23:49:33.244Z,14.40
2017-07-12T23:52:02.739Z,14.30
2017-07-12T23:54:32.419Z,14.30
2017-07-12T23:57:02.860Z,14.30
2017-07-12T23:59:33.318Z,14.40
